Albatros — DITX — position and weather

sailwx.info

Track history (hours):
 
Tides and Currents Weather Stations Pressure Air Temp Water Temp Dewpoint Dewpoint Depression Visibility Wind Speed Wind Dir Waves Ship Positions

Albatros

Last reported at 2014-Nov-01 14:11 UTC. Time now 2014-Dec-19 21:40 UTC.
Position N 54°31' E 013°09'.
Warning: this ship's position is 48 days out of date.

Length 16 m.

MMSI: 211226200.

Date/timePositionNaut miles runAvg speedWind from/ knotsBaromVisibWave heightAir tempDewpointWater temp
2014-Nov-01 14:11N 54°31' E 013°09'4 4.8
2014-Nov-01 13:25N 54°35' E 013°10'6 6.8
2014-Nov-01 12:34N 54°40' E 013°10'1 1.0
2014-Nov-01 11:33N 54°42' E 013°10'3 2.9
2014-Nov-01 10:32N 54°39' E 013°10'0 0.4
2014-Nov-01 09:33N 54°39' E 013°11'0 0.3
2014-Nov-01 08:34N 54°39' E 013°10'  
2014-Oct-28 13:11N 54°36' E 013°10'3 4.4
2014-Oct-28 12:33N 54°39' E 013°11'3 2.8
2014-Oct-28 11:32N 54°42' E 013°13'1 0.9
2014-Oct-28 10:33N 54°42' E 013°11'1 0.6
2014-Oct-28 09:32N 54°41' E 013°10'2 2.3
2014-Oct-28 08:33N 54°39' E 013°11'0 0.4
2014-Oct-28 07:33N 54°39' E 013°11'6 0.3
2014-Oct-27 06:28N 54°33' E 013°08'  
Track history (hours):
 
Tides and Currents Weather Stations Pressure Air Temp Water Temp Dewpoint Dewpoint Depression Visibility Wind Speed Wind Dir Waves Ship Positions

Albatros

Last reported at 2014-Nov-01 14:11 UTC. Time now 2014-Dec-19 21:40 UTC.
Position N 54°31' E 013°09'.
Warning: this ship's position is 48 days out of date.

Length 16 m.

MMSI: 211226200.

Date/timePositionNaut miles runAvg speedWind from/ knotsBaromVisibWave heightAir tempDewpointWater temp
2014-Nov-01 14:11N 54°31' E 013°09'4 4.8
2014-Nov-01 13:25N 54°35' E 013°10'6 6.8
2014-Nov-01 12:34N 54°40' E 013°10'1 1.0
2014-Nov-01 11:33N 54°42' E 013°10'3 2.9
2014-Nov-01 10:32N 54°39' E 013°10'0 0.4
2014-Nov-01 09:33N 54°39' E 013°11'0 0.3
2014-Nov-01 08:34N 54°39' E 013°10'  
2014-Oct-28 13:11N 54°36' E 013°10'3 4.4
2014-Oct-28 12:33N 54°39' E 013°11'3 2.8
2014-Oct-28 11:32N 54°42' E 013°13'1 0.9
2014-Oct-28 10:33N 54°42' E 013°11'1 0.6
2014-Oct-28 09:32N 54°41' E 013°10'2 2.3
2014-Oct-28 08:33N 54°39' E 013°11'0 0.4
2014-Oct-28 07:33N 54°39' E 013°11'6 0.3
2014-Oct-27 06:28N 54°33' E 013°08'  

Dump ship's entire track history